createdAt,value
2018-12-22T00:00:26.801Z,8.40
2018-12-22T00:02:57.614Z,8.28
2018-12-22T00:05:28.378Z,8.20
2018-12-22T00:07:59.270Z,8.23
2018-12-22T00:10:29.932Z,8.26
2018-12-22T00:13:03.535Z,8.35
2018-12-22T00:15:34.225Z,8.24
2018-12-22T00:18:05.164Z,8.33
2018-12-22T00:20:35.839Z,8.37
2018-12-22T00:23:06.532Z,8.34
2018-12-22T00:25:37.215Z,8.33
2018-12-22T00:28:07.898Z,8.32
2018-12-22T00:30:38.576Z,8.34
2018-12-22T00:33:09.257Z,8.40
2018-12-22T00:35:39.931Z,8.40
2018-12-22T00:38:12.079Z,8.45
2018-12-22T00:40:42.730Z,8.42
2018-12-22T00:43:13.415Z,8.49
2018-12-22T00:45:44.078Z,8.32
2018-12-22T00:48:14.772Z,8.36
2018-12-22T00:50:45.447Z,8.45
2018-12-22T00:53:16.171Z,8.43
2018-12-22T00:55:46.883Z,8.39
2018-12-22T00:58:17.590Z,8.39
2018-12-22T01:00:48.284Z,8.50
2018-12-22T01:03:19.023Z,8.42
2018-12-22T01:05:49.706Z,8.46
2018-12-22T01:08:20.500Z,8.46
2018-12-22T01:10:51.222Z,8.48
2018-12-22T01:13:22.956Z,8.47
2018-12-22T01:15:53.638Z,8.35
2018-12-22T01:18:24.354Z,8.39
2018-12-22T01:20:55.133Z,8.43
2018-12-22T01:23:25.834Z,8.39
2018-12-22T01:25:56.518Z,8.48
2018-12-22T01:28:27.238Z,8.40
2018-12-22T01:30:58.024Z,8.60
2018-12-22T01:33:28.741Z,8.47
2018-12-22T01:35:59.570Z,8.38
2018-12-22T01:38:30.269Z,8.43
2018-12-22T01:41:00.932Z,8.15
2018-12-22T01:43:31.677Z,8.43
2018-12-22T01:46:02.349Z,8.43
2018-12-22T01:48:33.033Z,8.57
2018-12-22T01:51:03.710Z,8.49
2018-12-22T01:53:34.396Z,8.51
2018-12-22T01:56:05.218Z,8.46
2018-12-22T01:58:35.893Z,8.53
2018-12-22T02:01:06.609Z,8.30
2018-12-22T02:03:38.327Z,8.41
2018-12-22T02:06:09.016Z,8.24
2018-12-22T02:08:39.797Z,8.35
2018-12-22T02:11:10.984Z,8.43
2018-12-22T02:13:41.673Z,8.40
2018-12-22T02:16:12.347Z,8.99
2018-12-22T02:18:43.037Z,8.29
2018-12-22T02:21:13.721Z,8.25
2018-12-22T02:23:44.404Z,8.26
2018-12-22T02:26:15.163Z,8.30
2018-12-22T02:28:45.915Z,8.27
2018-12-22T02:31:16.602Z,8.34
2018-12-22T02:33:47.277Z,8.41
2018-12-22T02:36:18.338Z,8.27
2018-12-22T02:38:49.023Z,8.40
2018-12-22T02:41:19.703Z,8.49
2018-12-22T02:43:50.388Z,8.26
2018-12-22T02:46:21.107Z,8.33
2018-12-22T02:48:51.797Z,8.15
2018-12-22T02:51:22.559Z,8.38
2018-12-22T02:53:53.245Z,8.41
2018-12-22T02:56:23.917Z,8.41
2018-12-22T02:58:54.851Z,8.46
2018-12-22T03:01:25.601Z,8.46
2018-12-22T03:03:56.272Z,8.40
2018-12-22T03:06:26.949Z,8.59
2018-12-22T03:08:57.708Z,8.45
2018-12-22T03:11:28.386Z,8.60
2018-12-22T03:14:00.117Z,8.43
2018-12-22T03:16:30.792Z,8.40
2018-12-22T03:19:01.581Z,8.45
2018-12-22T03:21:32.264Z,8.49
2018-12-22T03:24:02.940Z,8.56
2018-12-22T03:26:33.663Z,8.39
2018-12-22T03:29:04.513Z,8.34
2018-12-22T03:31:35.276Z,8.39
2018-12-22T03:34:06.056Z,8.40
2018-12-22T03:36:36.746Z,8.37
2018-12-22T03:39:09.366Z,8.29
2018-12-22T03:41:40.193Z,8.35
2018-12-22T03:44:10.955Z,8.36
2018-12-22T03:46:41.646Z,8.39
2018-12-22T03:49:12.345Z,8.27
2018-12-22T03:51:43.137Z,8.34
2018-12-22T03:54:13.824Z,7.99
2018-12-22T03:56:44.514Z,8.21
2018-12-22T03:59:24.465Z,8.31
2018-12-22T04:01:48.074Z,8.22
2018-12-22T04:04:18.782Z,8.31
2018-12-22T04:06:49.478Z,8.15
2018-12-22T04:09:20.184Z,8.21
2018-12-22T04:11:50.869Z,8.34
2018-12-22T04:14:21.564Z,8.22
2018-12-22T04:16:52.350Z,8.18
2018-12-22T04:19:23.134Z,8.26
2018-12-22T04:21:53.822Z,8.06
2018-12-22T04:24:24.536Z,8.09
2018-12-22T04:26:55.217Z,8.26
2018-12-22T04:29:33.634Z,8.10
2018-12-22T04:31:58.562Z,8.06
2018-12-22T04:34:29.267Z,7.29
2018-12-22T04:36:59.946Z,8.19
2018-12-22T04:39:30.670Z,8.14
2018-12-22T04:42:01.355Z,8.14
2018-12-22T04:44:32.410Z,8.13
2018-12-22T04:47:03.110Z,8.14
2018-12-22T04:49:34.764Z,8.01
2018-12-22T04:52:05.458Z,8.15
2018-12-22T04:54:36.165Z,8.08
2018-12-22T04:57:06.954Z,7.98
2018-12-22T04:59:42.932Z,7.99
2018-12-22T05:02:11.341Z,7.89
2018-12-22T05:04:42.035Z,7.76
2018-12-22T05:07:12.732Z,7.69
2018-12-22T05:09:43.441Z,7.53
2018-12-22T05:12:14.213Z,7.49
2018-12-22T05:14:44.922Z,7.36
2018-12-22T05:17:15.627Z,7.37
2018-12-22T05:19:46.352Z,7.38
2018-12-22T05:22:17.234Z,7.36
2018-12-22T05:24:47.930Z,7.31
2018-12-22T05:27:18.617Z,7.29
2018-12-22T05:29:52.010Z,7.45
2018-12-22T05:32:22.014Z,7.38
2018-12-22T05:34:52.732Z,7.26
2018-12-22T05:37:23.416Z,7.26
2018-12-22T05:39:54.121Z,7.17
2018-12-22T05:42:24.901Z,7.23
2018-12-22T05:44:55.592Z,7.30
2018-12-22T05:47:26.443Z,7.41
2018-12-22T05:49:57.210Z,7.42
2018-12-22T05:52:28.082Z,7.34
2018-12-22T05:54:58.929Z,7.37
2018-12-22T05:57:30.737Z,7.46
2018-12-22T06:00:01.612Z,7.50
2018-12-22T06:02:32.553Z,7.49
2018-12-22T06:05:03.445Z,7.42
2018-12-22T06:07:34.227Z,7.36
2018-12-22T06:10:05.766Z,7.40
2018-12-22T06:12:36.597Z,7.40
2018-12-22T06:15:07.769Z,7.48
2018-12-22T06:17:38.751Z,7.32
2018-12-22T06:20:11.628Z,7.25
2018-12-22T06:22:42.428Z,7.15
2018-12-22T06:25:13.277Z,7.16
2018-12-22T06:27:44.013Z,7.03
2018-12-22T06:30:14.771Z,7.06
2018-12-22T06:32:45.486Z,7.03
2018-12-22T06:35:16.204Z,6.96
2018-12-22T06:37:46.912Z,6.95
2018-12-22T06:40:17.813Z,6.97
2018-12-22T06:42:48.772Z,7.04
2018-12-22T06:45:19.547Z,7.12
2018-12-22T06:47:50.421Z,7.02
2018-12-22T06:50:21.408Z,7.04
2018-12-22T06:52:52.102Z,7.17
2018-12-22T06:55:22.980Z,7.09
2018-12-22T06:57:53.820Z,7.12
2018-12-22T07:00:24.559Z,7.12
2018-12-22T07:02:55.306Z,7.17
2018-12-22T07:05:26.108Z,7.19
2018-12-22T07:07:56.953Z,7.26
2018-12-22T07:10:27.687Z,7.28
2018-12-22T07:12:58.399Z,7.34
2018-12-22T07:15:30.332Z,7.39
2018-12-22T07:18:01.098Z,7.32
2018-12-22T07:20:31.881Z,7.40
2018-12-22T07:23:02.637Z,7.38
2018-12-22T07:25:33.336Z,7.33
2018-12-22T07:28:04.220Z,7.57
2018-12-22T07:30:35.049Z,7.51
2018-12-22T07:33:05.871Z,7.53
2018-12-22T07:35:36.820Z,7.47
2018-12-22T07:38:07.590Z,7.48
2018-12-22T07:40:38.466Z,7.48
2018-12-22T07:43:09.273Z,7.43
2018-12-22T07:45:40.152Z,7.45
2018-12-22T07:48:10.882Z,7.31
2018-12-22T07:50:42.151Z,7.35
2018-12-22T07:53:12.969Z,7.31
2018-12-22T07:55:43.941Z,7.31
2018-12-22T07:58:14.872Z,7.12
2018-12-22T08:00:45.610Z,7.16
2018-12-22T08:03:16.452Z,7.22
2018-12-22T08:05:47.169Z,7.14
2018-12-22T08:08:17.935Z,7.09
2018-12-22T08:10:48.776Z,7.11
2018-12-22T08:13:19.722Z,7.01
2018-12-22T08:15:50.545Z,7.02
2018-12-22T08:18:21.261Z,7.11
2018-12-22T08:20:52.075Z,7.16
2018-12-22T08:23:22.777Z,7.22
2018-12-22T08:25:53.677Z,7.15
2018-12-22T08:28:24.462Z,7.16
2018-12-22T08:30:55.234Z,7.27
2018-12-22T08:33:26.462Z,7.07
2018-12-22T08:35:57.350Z,7.13
2018-12-22T08:38:28.133Z,7.15
2018-12-22T08:40:59.013Z,7.19
2018-12-22T08:43:29.890Z,7.17
2018-12-22T08:46:00.713Z,7.14
2018-12-22T08:48:31.507Z,7.20
2018-12-22T08:51:02.801Z,7.30
2018-12-22T08:53:33.889Z,7.23
2018-12-22T08:56:04.981Z,7.24
2018-12-22T08:58:35.689Z,7.30
2018-12-22T09:01:06.624Z,7.32
2018-12-22T09:03:37.345Z,7.40
2018-12-22T09:06:08.134Z,7.30
2018-12-22T09:08:39.017Z,7.33
2018-12-22T09:11:11.533Z,7.45
2018-12-22T09:13:42.386Z,7.30
2018-12-22T09:16:13.275Z,7.30
2018-12-22T09:18:44.028Z,7.37
2018-12-22T09:21:14.838Z,7.32
2018-12-22T09:23:45.673Z,7.43
2018-12-22T09:26:16.661Z,7.46
2018-12-22T09:28:47.435Z,7.49
2018-12-22T09:31:18.177Z,7.52
2018-12-22T09:33:48.876Z,7.60
2018-12-22T09:36:19.638Z,7.72
2018-12-22T09:38:50.334Z,7.70
2018-12-22T09:41:21.264Z,7.70
2018-12-22T09:43:51.954Z,7.77
2018-12-22T09:46:22.792Z,7.83
2018-12-22T09:48:53.590Z,7.81
2018-12-22T09:51:24.356Z,7.63
2018-12-22T09:53:55.156Z,7.82
2018-12-22T09:56:26.673Z,7.87
2018-12-22T09:58:57.421Z,7.83
2018-12-22T10:01:28.289Z,7.84
2018-12-22T10:03:59.317Z,7.94
2018-12-22T10:06:30.089Z,7.67
2018-12-22T10:09:00.982Z,7.95
2018-12-22T10:11:31.754Z,7.84
2018-12-22T10:14:03.049Z,7.97
2018-12-22T10:16:33.777Z,7.93
2018-12-22T10:19:04.577Z,7.93
2018-12-22T10:21:35.289Z,8.00
2018-12-22T10:24:06.037Z,8.08
2018-12-22T10:26:36.861Z,8.05
2018-12-22T10:29:07.545Z,8.16
2018-12-22T10:31:38.378Z,8.03
2018-12-22T10:34:09.228Z,8.14
2018-12-22T10:36:40.837Z,8.12
2018-12-22T10:41:50.317Z,8.07
2018-12-22T10:44:21.101Z,8.09
2018-12-22T10:46:51.882Z,8.08
2018-12-22T10:49:22.705Z,8.03
2018-12-22T10:51:53.432Z,7.99
2018-12-22T10:54:24.132Z,8.04
2018-12-22T10:56:54.872Z,8.63
2018-12-22T10:59:25.634Z,8.02
2018-12-22T11:01:56.344Z,8.00
2018-12-22T11:04:27.033Z,7.99
2018-12-22T11:06:57.791Z,7.96
2018-12-22T11:09:28.464Z,8.00
2018-12-22T11:11:59.179Z,8.06
2018-12-22T11:14:30.088Z,8.08
2018-12-22T11:17:00.785Z,8.09
2018-12-22T11:19:31.491Z,8.06
2018-12-22T11:22:02.298Z,8.04
2018-12-22T11:24:34.123Z,8.70
2018-12-22T11:27:05.118Z,7.97
2018-12-22T11:29:35.806Z,7.90
2018-12-22T11:32:06.753Z,7.89
2018-12-22T11:34:37.446Z,7.85
2018-12-22T11:37:08.145Z,7.91
2018-12-22T11:39:39.986Z,7.91
2018-12-22T11:42:11.012Z,7.92
2018-12-22T11:44:41.693Z,7.84
2018-12-22T11:47:27.171Z,7.79
2018-12-22T11:49:57.866Z,7.87
2018-12-22T11:52:28.889Z,7.89
2018-12-22T11:54:59.784Z,7.88
2018-12-22T11:57:30.485Z,7.79
2018-12-22T12:00:01.183Z,7.71
2018-12-22T12:02:31.872Z,7.79
2018-12-22T12:05:02.646Z,7.73
2018-12-22T12:07:33.382Z,7.76
2018-12-22T12:10:04.436Z,7.69
2018-12-22T12:12:35.233Z,7.67
2018-12-22T12:15:12.503Z,7.60
2018-12-22T12:18:02.225Z,7.43
2018-12-22T12:20:32.929Z,7.39
2018-12-22T12:23:03.960Z,7.03
2018-12-22T12:25:34.660Z,7.09
2018-12-22T12:28:05.445Z,7.13
2018-12-22T12:30:36.136Z,7.05
2018-12-22T12:33:06.861Z,6.91
2018-12-22T12:35:37.566Z,6.98
2018-12-22T12:38:08.273Z,6.90
2018-12-22T12:40:38.952Z,6.81
2018-12-22T12:43:09.654Z,6.85
2018-12-22T12:45:40.342Z,6.85
2018-12-22T12:48:11.169Z,6.80
2018-12-22T12:50:43.270Z,6.67
2018-12-22T12:53:13.964Z,6.74
2018-12-22T12:55:44.795Z,6.69
2018-12-22T12:58:15.480Z,7.12
2018-12-22T13:00:46.163Z,6.61
2018-12-22T13:03:16.856Z,6.56
2018-12-22T13:05:47.530Z,6.65
2018-12-22T13:08:18.313Z,6.60
2018-12-22T13:10:49.103Z,6.68
2018-12-22T13:14:25.074Z,6.69
2018-12-22T13:16:55.802Z,6.58
2018-12-22T13:19:26.496Z,6.55
2018-12-22T13:21:57.173Z,6.55
2018-12-22T13:24:27.873Z,6.69
2018-12-22T13:26:58.561Z,6.72
2018-12-22T13:29:29.264Z,6.69
2018-12-22T13:31:59.950Z,6.85
2018-12-22T13:34:30.645Z,6.90
2018-12-22T13:37:01.664Z,7.19
2018-12-22T13:39:32.647Z,7.50
2018-12-22T13:42:03.541Z,7.72
2018-12-22T13:44:34.458Z,7.90
2018-12-22T13:47:05.424Z,7.83
2018-12-22T13:49:36.368Z,7.74
2018-12-22T13:52:07.218Z,7.76
2018-12-22T13:54:37.922Z,7.65
2018-12-22T13:57:08.592Z,7.55
2018-12-22T13:59:39.293Z,7.55
2018-12-22T14:02:18.120Z,7.55
2018-12-22T14:04:44.079Z,7.55
2018-12-22T14:07:14.756Z,7.41
2018-12-22T14:09:45.437Z,7.23
2018-12-22T14:12:16.121Z,7.30
2018-12-22T14:14:46.806Z,7.26
2018-12-22T14:17:25.866Z,7.11
2018-12-22T14:20:03.621Z,7.21
2018-12-22T14:22:35.552Z,7.22
2018-12-22T14:25:13.765Z,7.20
2018-12-22T14:27:44.436Z,7.21
2018-12-22T14:30:15.125Z,7.10
2018-12-22T14:32:45.845Z,7.12
2018-12-22T14:35:38.888Z,7.04
2018-12-22T14:38:10.648Z,6.91
2018-12-22T14:40:41.425Z,6.91
2018-12-22T14:43:12.117Z,6.90
2018-12-22T14:45:42.801Z,6.73
2018-12-22T14:48:13.570Z,6.77
2018-12-22T14:50:44.337Z,6.74
2018-12-22T14:53:15.016Z,6.54
2018-12-22T14:55:45.719Z,6.59
2018-12-22T14:58:24.194Z,6.60
2018-12-22T15:00:55.051Z,5.80
2018-12-22T15:03:25.817Z,6.36
2018-12-22T15:05:56.513Z,6.46
2018-12-22T15:08:27.280Z,6.48
2018-12-22T15:10:57.976Z,6.51
2018-12-22T15:13:28.680Z,6.61
2018-12-22T15:15:59.452Z,6.45
2018-12-22T15:18:30.225Z,6.49
2018-12-22T15:21:00.925Z,6.67
2018-12-22T15:23:31.689Z,6.68
2018-12-22T15:26:02.379Z,6.75
2018-12-22T15:28:33.060Z,6.65
2018-12-22T15:31:03.827Z,6.73
2018-12-22T15:33:34.516Z,6.63
2018-12-22T15:36:05.382Z,6.63
2018-12-22T15:38:36.061Z,6.48
2018-12-22T15:41:06.762Z,6.55
2018-12-22T15:43:37.466Z,6.51
2018-12-22T15:46:08.149Z,6.35
2018-12-22T15:48:38.921Z,6.37
2018-12-22T15:51:10.773Z,6.27
2018-12-22T15:53:41.460Z,6.28
2018-12-22T15:56:12.185Z,6.23
2018-12-22T15:58:42.877Z,6.18
2018-12-22T16:01:13.593Z,6.20
2018-12-22T16:03:44.298Z,6.19
2018-12-22T16:06:15.040Z,5.96
2018-12-22T16:08:45.734Z,6.21
2018-12-22T16:11:16.468Z,6.32
2018-12-22T16:13:47.157Z,6.32
2018-12-22T16:16:17.850Z,6.38
2018-12-22T16:18:48.528Z,6.33
2018-12-22T16:21:19.233Z,6.49
2018-12-22T16:23:49.927Z,6.36
2018-12-22T16:26:20.707Z,6.33
2018-12-22T16:29:10.045Z,6.45
2018-12-22T16:31:40.849Z,6.46
2018-12-22T16:34:11.623Z,6.50
2018-12-22T16:36:42.329Z,6.60
2018-12-22T16:39:13.028Z,6.53
2018-12-22T16:41:43.730Z,6.62
2018-12-22T16:44:18.006Z,6.43
2018-12-22T16:46:48.797Z,6.51
2018-12-22T16:49:19.483Z,6.64
2018-12-22T16:51:50.354Z,6.60
2018-12-22T16:54:21.081Z,6.65
2018-12-22T16:56:51.776Z,6.41
2018-12-22T16:59:22.528Z,6.68
2018-12-22T17:02:11.503Z,6.88
2018-12-22T17:04:42.666Z,6.81
2018-12-22T17:07:13.349Z,6.74
2018-12-22T17:09:44.063Z,6.77
2018-12-22T17:12:14.757Z,6.88
2018-12-22T17:14:45.460Z,6.85
2018-12-22T17:17:16.148Z,6.89
2018-12-22T17:19:46.837Z,6.76
2018-12-22T17:22:33.031Z,6.71
2018-12-22T17:25:18.312Z,6.77
2018-12-22T17:27:49.179Z,6.83
2018-12-22T17:30:19.860Z,6.78
2018-12-22T17:32:50.563Z,6.76
2018-12-22T17:35:21.365Z,6.71
2018-12-22T17:37:53.287Z,6.65
2018-12-22T17:40:23.978Z,6.79
2018-12-22T17:42:54.662Z,6.70
2018-12-22T17:45:25.357Z,6.79
2018-12-22T17:47:57.100Z,6.69
2018-12-22T17:50:27.805Z,6.82
2018-12-22T17:52:59.644Z,6.65
2018-12-22T17:55:30.554Z,6.59
2018-12-22T17:58:01.250Z,6.73
2018-12-22T18:00:31.930Z,6.54
2018-12-22T18:03:02.801Z,6.61
2018-12-22T18:05:33.473Z,6.61
2018-12-22T18:08:04.167Z,6.89
2018-12-22T18:10:34.946Z,6.62
2018-12-22T18:13:05.780Z,6.70
2018-12-22T18:15:36.533Z,6.72
2018-12-22T18:18:07.296Z,6.64
2018-12-22T18:20:38.017Z,6.66
2018-12-22T18:23:08.741Z,6.78
2018-12-22T18:25:39.542Z,7.29
2018-12-22T18:28:11.157Z,6.57
2018-12-22T18:30:41.928Z,6.57
2018-12-22T18:33:12.621Z,6.54
2018-12-22T18:35:43.314Z,6.58
2018-12-22T18:38:14.009Z,6.52
2018-12-22T18:40:44.844Z,6.59
2018-12-22T18:43:15.649Z,6.58
2018-12-22T18:45:46.333Z,6.53
2018-12-22T18:48:17.148Z,6.56
2018-12-22T18:50:47.830Z,6.63
2018-12-22T18:53:18.849Z,6.64
2018-12-22T18:55:49.530Z,6.68
2018-12-22T18:58:20.254Z,6.68
2018-12-22T19:00:51.028Z,6.72
2018-12-22T19:03:21.716Z,6.66
2018-12-22T19:05:52.397Z,6.65
2018-12-22T19:08:23.140Z,6.62
2018-12-22T19:10:59.842Z,6.74
2018-12-22T19:13:30.809Z,6.78
2018-12-22T19:16:01.551Z,6.71
2018-12-22T19:18:32.509Z,6.46
2018-12-22T19:21:03.218Z,6.64
2018-12-22T19:23:33.999Z,6.74
2018-12-22T19:26:04.781Z,6.70
2018-12-22T19:28:35.624Z,6.68
2018-12-22T19:31:06.448Z,6.73
2018-12-22T19:33:40.590Z,6.73
2018-12-22T19:36:11.301Z,6.62
2018-12-22T19:38:42.054Z,6.60
2018-12-22T19:41:12.821Z,6.66
2018-12-22T19:43:43.585Z,6.57
2018-12-22T19:46:14.323Z,6.64
2018-12-22T19:48:45.258Z,6.58
2018-12-22T19:51:16.048Z,6.38
2018-12-22T19:53:46.810Z,6.34
2018-12-22T19:56:17.543Z,7.09
2018-12-22T19:58:48.247Z,6.26
2018-12-22T20:01:18.984Z,6.27
2018-12-22T20:03:49.698Z,6.35
2018-12-22T20:06:20.461Z,6.39
2018-12-22T20:08:51.237Z,6.40
2018-12-22T20:11:22.013Z,6.34
2018-12-22T20:13:52.730Z,6.49
2018-12-22T20:16:23.479Z,6.39
2018-12-22T20:18:54.296Z,6.41
2018-12-22T20:21:24.992Z,6.34
2018-12-22T20:23:55.705Z,6.37
2018-12-22T20:26:26.512Z,6.41
2018-12-22T20:28:58.393Z,6.34
2018-12-22T20:31:29.135Z,6.33
2018-12-22T20:33:59.864Z,6.43
2018-12-22T20:36:30.613Z,6.52
2018-12-22T20:39:01.370Z,6.39
2018-12-22T20:41:33.837Z,6.52
2018-12-22T20:44:05.620Z,6.48
2018-12-22T20:46:36.339Z,6.43
2018-12-22T20:49:07.087Z,6.53
2018-12-22T20:51:37.794Z,6.52
2018-12-22T20:54:08.568Z,6.43
2018-12-22T20:56:39.300Z,6.49
2018-12-22T20:59:12.664Z,5.76
2018-12-22T21:01:43.470Z,6.47
2018-12-22T21:04:19.861Z,6.52
2018-12-22T21:06:46.993Z,6.46
2018-12-22T21:09:18.175Z,6.51
2018-12-22T21:11:48.894Z,6.45
2018-12-22T21:14:19.685Z,6.49
2018-12-22T21:16:50.385Z,6.49
2018-12-22T21:19:21.183Z,6.52
2018-12-22T21:22:22.755Z,6.48
2018-12-22T21:24:53.498Z,6.39
2018-12-22T21:27:24.209Z,6.33
2018-12-22T21:29:54.976Z,6.35
2018-12-22T21:32:25.698Z,6.31
2018-12-22T21:34:56.433Z,6.45
2018-12-22T21:37:27.150Z,6.39
2018-12-22T21:39:57.849Z,6.40
2018-12-22T21:42:28.645Z,6.43
2018-12-22T21:44:59.405Z,6.29
2018-12-22T21:47:30.109Z,6.29
2018-12-22T21:50:01.178Z,6.30
2018-12-22T21:52:31.880Z,6.32
2018-12-22T21:55:02.607Z,6.40
2018-12-22T21:57:33.330Z,6.31
2018-12-22T22:00:04.212Z,6.38
2018-12-22T22:02:34.938Z,6.32
2018-12-22T22:05:05.842Z,6.40
2018-12-22T22:07:36.556Z,6.29
2018-12-22T22:10:07.471Z,6.28
2018-12-22T22:12:38.189Z,6.20
2018-12-22T22:15:09.068Z,6.26
2018-12-22T22:17:39.827Z,6.18
2018-12-22T22:20:10.734Z,6.33
2018-12-22T22:22:41.462Z,6.31
2018-12-22T22:25:12.220Z,6.37
2018-12-22T22:27:43.077Z,6.30
2018-12-22T22:30:13.843Z,6.22
2018-12-22T22:32:44.551Z,6.34
2018-12-22T22:35:16.325Z,6.18
2018-12-22T22:37:47.040Z,6.28
2018-12-22T22:40:17.771Z,6.17
2018-12-22T22:42:48.487Z,6.30
2018-12-22T22:45:19.243Z,6.12
2018-12-22T22:47:49.988Z,6.23
2018-12-22T22:50:20.784Z,6.18
2018-12-22T22:52:51.517Z,6.21
2018-12-22T22:55:22.232Z,6.26
2018-12-22T22:57:52.991Z,6.28
2018-12-22T23:03:06.897Z,6.30
2018-12-22T23:05:37.625Z,6.23
2018-12-22T23:08:08.341Z,6.24
2018-12-22T23:10:39.149Z,6.14
2018-12-22T23:13:10.753Z,6.19
2018-12-22T23:15:41.504Z,5.91
2018-12-22T23:18:12.216Z,6.18
2018-12-22T23:20:42.937Z,6.15
2018-12-22T23:23:13.645Z,6.27
2018-12-22T23:25:44.388Z,6.18
2018-12-22T23:28:15.124Z,6.16
2018-12-22T23:30:52.225Z,6.14
2018-12-22T23:33:22.951Z,6.09
2018-12-22T23:35:53.701Z,5.51
2018-12-22T23:38:24.420Z,6.07
2018-12-22T23:40:55.179Z,6.12
2018-12-22T23:43:27.106Z,6.07
2018-12-22T23:45:57.829Z,6.12
2018-12-22T23:48:28.565Z,6.09
2018-12-22T23:50:59.406Z,6.19
2018-12-22T23:53:30.152Z,6.01
2018-12-22T23:56:00.955Z,5.48
2018-12-22T23:58:31.858Z,6.20
